sensor_id;sensor_type;location;lat;lon;timestamp;temperature;humidity
71254;HTU21D;59019;47.638;18.966;2023-05-16T00:01:40;12.42;103.87
71254;HTU21D;59019;47.638;18.966;2023-05-16T00:04:06;12.43;103.73
71254;HTU21D;59019;47.638;18.966;2023-05-16T00:06:31;12.42;103.30
71254;HTU21D;59019;47.638;18.966;2023-05-16T00:08:58;12.43;103.17
71254;HTU21D;59019;47.638;18.966;2023-05-16T00:11:24;12.38;103.40
71254;HTU21D;59019;47.638;18.966;2023-05-16T00:13:50;12.30;103.97
71254;HTU21D;59019;47.638;18.966;2023-05-16T00:16:15;12.35;103.47
71254;HTU21D;59019;47.638;18.966;2023-05-16T00:18:41;12.26;104.10
71254;HTU21D;59019;47.638;18.966;2023-05-16T00:21:10;12.21;104.21
71254;HTU21D;59019;47.638;18.966;2023-05-16T00:23:36;12.28;103.68
71254;HTU21D;59019;47.638;18.966;2023-05-16T00:26:01;12.15;104.97
71254;HTU21D;59019;47.638;18.966;2023-05-16T00:28:27;12.19;104.14
71254;HTU21D;59019;47.638;18.966;2023-05-16T00:30:53;12.22;103.68
71254;HTU21D;59019;47.638;18.966;2023-05-16T00:33:18;12.26;103.99
71254;HTU21D;59019;47.638;18.966;2023-05-16T00:35:44;12.27;103.73
71254;HTU21D;59019;47.638;18.966;2023-05-16T00:38:10;12.12;105.03
71254;HTU21D;59019;47.638;18.966;2023-05-16T00:40:35;12.16;105.11
71254;HTU21D;59019;47.638;18.966;2023-05-16T00:43:01;12.20;104.95
71254;HTU21D;59019;47.638;18.966;2023-05-16T00:45:27;12.25;104.86
71254;HTU21D;59019;47.638;18.966;2023-05-16T00:47:53;12.27;104.11
71254;HTU21D;59019;47.638;18.966;2023-05-16T00:50:18;12.30;104.02
71254;HTU21D;59019;47.638;18.966;2023-05-16T00:52:44;12.29;103.97
71254;HTU21D;59019;47.638;18.966;2023-05-16T00:55:10;12.29;104.21
71254;HTU21D;59019;47.638;18.966;2023-05-16T00:57:37;12.25;104.79
71254;HTU21D;59019;47.638;18.966;2023-05-16T01:00:06;12.29;104.17
71254;HTU21D;59019;47.638;18.966;2023-05-16T01:02:36;12.23;103.63
71254;HTU21D;59019;47.638;18.966;2023-05-16T01:05:05;12.20;103.80
71254;HTU21D;59019;47.638;18.966;2023-05-16T01:07:33;12.20;103.99
71254;HTU21D;59019;47.638;18.966;2023-05-16T01:10:00;12.23;103.59
71254;HTU21D;59019;47.638;18.966;2023-05-16T01:15:12;12.23;103.44
71254;HTU21D;59019;47.638;18.966;2023-05-16T01:20:42;12.28;104.45
71254;HTU21D;59019;47.638;18.966;2023-05-16T01:26:24;12.30;105.20
71254;HTU21D;59019;47.638;18.966;2023-05-16T01:28:51;12.26;105.47
71254;HTU21D;59019;47.638;18.966;2023-05-16T01:31:18;12.30;106.11
71254;HTU21D;59019;47.638;18.966;2023-05-16T01:33:44;12.33;106.56
71254;HTU21D;59019;47.638;18.966;2023-05-16T01:38:43;12.34;106.67
71254;HTU21D;59019;47.638;18.966;2023-05-16T01:44:01;12.29;107.75
71254;HTU21D;59019;47.638;18.966;2023-05-16T01:46:32;12.30;107.98
71254;HTU21D;59019;47.638;18.966;2023-05-16T01:49:16;12.31;107.51
71254;HTU21D;59019;47.638;18.966;2023-05-16T01:51:50;12.38;107.56
71254;HTU21D;59019;47.638;18.966;2023-05-16T01:54:18;12.44;107.62
71254;HTU21D;59019;47.638;18.966;2023-05-16T01:56:54;12.50;107.21
71254;HTU21D;59019;47.638;18.966;2023-05-16T01:59:21;12.52;106.94
71254;HTU21D;59019;47.638;18.966;2023-05-16T02:01:47;12.51;106.26
71254;HTU21D;59019;47.638;18.966;2023-05-16T02:04:13;12.53;106.18
71254;HTU21D;59019;47.638;18.966;2023-05-16T02:06:40;12.57;105.66
71254;HTU21D;59019;47.638;18.966;2023-05-16T02:09:06;12.52;105.27
71254;HTU21D;59019;47.638;18.966;2023-05-16T02:11:32;12.52;106.08
71254;HTU21D;59019;47.638;18.966;2023-05-16T02:13:58;12.52;105.62
71254;HTU21D;59019;47.638;18.966;2023-05-16T02:16:24;12.51;106.11
71254;HTU21D;59019;47.638;18.966;2023-05-16T02:18:49;12.48;106.30
71254;HTU21D;59019;47.638;18.966;2023-05-16T02:21:15;12.51;106.23
71254;HTU21D;59019;47.638;18.966;2023-05-16T02:23:40;12.56;105.43
71254;HTU21D;59019;47.638;18.966;2023-05-16T02:26:06;12.52;105.47
71254;HTU21D;59019;47.638;18.966;2023-05-16T02:28:31;12.52;106.10
71254;HTU21D;59019;47.638;18.966;2023-05-16T02:31:00;12.51;105.95
71254;HTU21D;59019;47.638;18.966;2023-05-16T02:33:27;12.44;106.21
71254;HTU21D;59019;47.638;18.966;2023-05-16T02:35:53;12.44;106.27
71254;HTU21D;59019;47.638;18.966;2023-05-16T02:38:19;12.45;106.09
71254;HTU21D;59019;47.638;18.966;2023-05-16T02:40:48;12.34;106.05
71254;HTU21D;59019;47.638;18.966;2023-05-16T02:43:14;12.35;106.28
71254;HTU21D;59019;47.638;18.966;2023-05-16T02:45:40;12.33;106.77
71254;HTU21D;59019;47.638;18.966;2023-05-16T02:48:06;12.36;106.54
71254;HTU21D;59019;47.638;18.966;2023-05-16T02:50:32;12.36;106.11
71254;HTU21D;59019;47.638;18.966;2023-05-16T02:52:58;12.37;105.81
71254;HTU21D;59019;47.638;18.966;2023-05-16T02:55:27;12.31;106.06
71254;HTU21D;59019;47.638;18.966;2023-05-16T02:57:53;12.31;106.37
71254;HTU21D;59019;47.638;18.966;2023-05-16T03:00:19;12.32;106.27
71254;HTU21D;59019;47.638;18.966;2023-05-16T03:02:44;12.34;106.61
71254;HTU21D;59019;47.638;18.966;2023-05-16T03:05:10;12.35;106.70
71254;HTU21D;59019;47.638;18.966;2023-05-16T03:07:37;12.36;106.46
71254;HTU21D;59019;47.638;18.966;2023-05-16T03:10:03;12.35;106.17
71254;HTU21D;59019;47.638;18.966;2023-05-16T03:12:28;12.36;106.84
71254;HTU21D;59019;47.638;18.966;2023-05-16T03:14:54;12.38;106.46
71254;HTU21D;59019;47.638;18.966;2023-05-16T03:17:20;12.43;106.04
71254;HTU21D;59019;47.638;18.966;2023-05-16T03:19:45;12.43;106.17
71254;HTU21D;59019;47.638;18.966;2023-05-16T03:22:11;12.42;105.95
71254;HTU21D;59019;47.638;18.966;2023-05-16T03:24:36;12.36;105.71
71254;HTU21D;59019;47.638;18.966;2023-05-16T03:27:02;12.35;105.85
71254;HTU21D;59019;47.638;18.966;2023-05-16T03:29:29;12.34;105.66
71254;HTU21D;59019;47.638;18.966;2023-05-16T03:31:55;12.33;105.83
71254;HTU21D;59019;47.638;18.966;2023-05-16T03:34:21;12.35;106.14
71254;HTU21D;59019;47.638;18.966;2023-05-16T03:36:50;12.37;106.30
71254;HTU21D;59019;47.638;18.966;2023-05-16T03:39:16;12.41;106.30
71254;HTU21D;59019;47.638;18.966;2023-05-16T03:41:42;12.37;106.04
71254;HTU21D;59019;47.638;18.966;2023-05-16T03:44:07;12.44;105.97
71254;HTU21D;59019;47.638;18.966;2023-05-16T03:46:34;12.48;106.21
71254;HTU21D;59019;47.638;18.966;2023-05-16T03:49:00;12.55;106.21
71254;HTU21D;59019;47.638;18.966;2023-05-16T03:51:25;12.59;105.71
71254;HTU21D;59019;47.638;18.966;2023-05-16T03:53:51;12.63;105.84
71254;HTU21D;59019;47.638;18.966;2023-05-16T03:56:16;12.67;105.53
71254;HTU21D;59019;47.638;18.966;2023-05-16T03:58:42;12.73;105.09
71254;HTU21D;59019;47.638;18.966;2023-05-16T04:01:08;12.75;104.38
71254;HTU21D;59019;47.638;18.966;2023-05-16T04:03:33;12.78;104.01
71254;HTU21D;59019;47.638;18.966;2023-05-16T04:05:59;12.76;103.73
71254;HTU21D;59019;47.638;18.966;2023-05-16T04:08:24;12.77;103.73
71254;HTU21D;59019;47.638;18.966;2023-05-16T04:10:50;12.85;103.52
71254;HTU21D;59019;47.638;18.966;2023-05-16T04:13:16;12.88;103.51
71254;HTU21D;59019;47.638;18.966;2023-05-16T04:15:41;12.91;102.94
71254;HTU21D;59019;47.638;18.966;2023-05-16T04:18:08;12.99;102.79
71254;HTU21D;59019;47.638;18.966;2023-05-16T04:20:33;13.01;102.29
71254;HTU21D;59019;47.638;18.966;2023-05-16T04:22:59;13.04;102.18
71254;HTU21D;59019;47.638;18.966;2023-05-16T04:25:25;13.07;102.66
71254;HTU21D;59019;47.638;18.966;2023-05-16T04:27:51;13.12;102.53
71254;HTU21D;59019;47.638;18.966;2023-05-16T04:30:16;13.16;102.12
71254;HTU21D;59019;47.638;18.966;2023-05-16T04:32:42;13.16;102.24
71254;HTU21D;59019;47.638;18.966;2023-05-16T04:35:08;13.19;102.00
71254;HTU21D;59019;47.638;18.966;2023-05-16T04:37:33;13.14;101.77
71254;HTU21D;59019;47.638;18.966;2023-05-16T04:40:01;13.10;101.99
71254;HTU21D;59019;47.638;18.966;2023-05-16T04:42:26;13.06;102.06
71254;HTU21D;59019;47.638;18.966;2023-05-16T04:44:52;13.14;102.38
71254;HTU21D;59019;47.638;18.966;2023-05-16T04:47:17;13.18;102.65
71254;HTU21D;59019;47.638;18.966;2023-05-16T04:49:43;13.26;102.67
71254;HTU21D;59019;47.638;18.966;2023-05-16T04:52:08;13.29;102.87
71254;HTU21D;59019;47.638;18.966;2023-05-16T04:54:34;13.27;102.70
71254;HTU21D;59019;47.638;18.966;2023-05-16T04:56:59;13.32;102.63
71254;HTU21D;59019;47.638;18.966;2023-05-16T04:59:25;13.35;102.69
71254;HTU21D;59019;47.638;18.966;2023-05-16T05:01:51;13.36;102.78
71254;HTU21D;59019;47.638;18.966;2023-05-16T05:04:16;13.39;102.99
71254;HTU21D;59019;47.638;18.966;2023-05-16T05:06:42;13.44;102.74
71254;HTU21D;59019;47.638;18.966;2023-05-16T05:09:08;13.47;102.48
71254;HTU21D;59019;47.638;18.966;2023-05-16T05:11:34;13.48;102.19
71254;HTU21D;59019;47.638;18.966;2023-05-16T05:14:00;13.52;102.15
71254;HTU21D;59019;47.638;18.966;2023-05-16T05:16:26;13.55;102.03
71254;HTU21D;59019;47.638;18.966;2023-05-16T05:18:51;13.54;102.14
71254;HTU21D;59019;47.638;18.966;2023-05-16T05:21:17;13.51;101.99
71254;HTU21D;59019;47.638;18.966;2023-05-16T05:23:44;13.32;102.78
71254;HTU21D;59019;47.638;18.966;2023-05-16T05:26:10;13.36;103.19
71254;HTU21D;59019;47.638;18.966;2023-05-16T05:28:36;13.44;103.28
71254;HTU21D;59019;47.638;18.966;2023-05-16T05:31:03;13.45;103.70
71254;HTU21D;59019;47.638;18.966;2023-05-16T05:33:29;13.48;103.47
71254;HTU21D;59019;47.638;18.966;2023-05-16T05:35:56;13.39;103.38
71254;HTU21D;59019;47.638;18.966;2023-05-16T05:38:22;13.46;103.50
71254;HTU21D;59019;47.638;18.966;2023-05-16T05:40:47;13.51;103.29
71254;HTU21D;59019;47.638;18.966;2023-05-16T05:43:14;13.54;103.26
71254;HTU21D;59019;47.638;18.966;2023-05-16T05:45:39;13.58;103.29
71254;HTU21D;59019;47.638;18.966;2023-05-16T05:48:05;13.64;103.36
71254;HTU21D;59019;47.638;18.966;2023-05-16T05:50:31;13.67;103.45
71254;HTU21D;59019;47.638;18.966;2023-05-16T05:52:57;13.63;103.49
71254;HTU21D;59019;47.638;18.966;2023-05-16T05:55:22;13.63;103.81
71254;HTU21D;59019;47.638;18.966;2023-05-16T05:57:48;13.69;103.77
71254;HTU21D;59019;47.638;18.966;2023-05-16T06:00:13;13.78;103.63
71254;HTU21D;59019;47.638;18.966;2023-05-16T06:02:39;13.82;103.06
71254;HTU21D;59019;47.638;18.966;2023-05-16T06:05:05;13.89;102.96
71254;HTU21D;59019;47.638;18.966;2023-05-16T06:07:31;13.96;102.80
71254;HTU21D;59019;47.638;18.966;2023-05-16T06:09:56;14.05;102.48
71254;HTU21D;59019;47.638;18.966;2023-05-16T06:12:22;14.11;102.02
71254;HTU21D;59019;47.638;18.966;2023-05-16T06:14:47;14.17;101.54
71254;HTU21D;59019;47.638;18.966;2023-05-16T06:17:13;14.20;101.35
71254;HTU21D;59019;47.638;18.966;2023-05-16T06:19:38;14.24;101.05
71254;HTU21D;59019;47.638;18.966;2023-05-16T06:22:04;14.25;100.35
71254;HTU21D;59019;47.638;18.966;2023-05-16T06:24:29;14.24;100.59
71254;HTU21D;59019;47.638;18.966;2023-05-16T06:26:55;14.28;100.54
71254;HTU21D;59019;47.638;18.966;2023-05-16T06:29:21;14.24;100.49
71254;HTU21D;59019;47.638;18.966;2023-05-16T06:31:47;14.24;100.90
71254;HTU21D;59019;47.638;18.966;2023-05-16T06:34:12;14.22;101.05
71254;HTU21D;59019;47.638;18.966;2023-05-16T06:36:38;14.23;101.10
71254;HTU21D;59019;47.638;18.966;2023-05-16T06:39:03;14.17;100.61
71254;HTU21D;59019;47.638;18.966;2023-05-16T06:41:29;14.21;100.27
71254;HTU21D;59019;47.638;18.966;2023-05-16T06:43:55;14.33;100.19
71254;HTU21D;59019;47.638;18.966;2023-05-16T06:46:21;14.43;98.93
71254;HTU21D;59019;47.638;18.966;2023-05-16T06:48:46;14.58;98.29
71254;HTU21D;59019;47.638;18.966;2023-05-16T06:51:12;14.68;98.35
71254;HTU21D;59019;47.638;18.966;2023-05-16T06:53:38;14.73;98.28
71254;HTU21D;59019;47.638;18.966;2023-05-16T06:56:03;14.73;98.23
71254;HTU21D;59019;47.638;18.966;2023-05-16T06:58:29;14.81;97.83
71254;HTU21D;59019;47.638;18.966;2023-05-16T07:00:55;14.86;97.35
71254;HTU21D;59019;47.638;18.966;2023-05-16T07:03:20;14.84;96.99
71254;HTU21D;59019;47.638;18.966;2023-05-16T07:05:46;14.93;97.63
71254;HTU21D;59019;47.638;18.966;2023-05-16T07:08:11;14.98;97.21
71254;HTU21D;59019;47.638;18.966;2023-05-16T07:10:38;14.99;96.15
71254;HTU21D;59019;47.638;18.966;2023-05-16T07:13:03;14.98;95.68
71254;HTU21D;59019;47.638;18.966;2023-05-16T07:15:29;14.95;95.75
71254;HTU21D;59019;47.638;18.966;2023-05-16T07:17:55;14.96;95.20
71254;HTU21D;59019;47.638;18.966;2023-05-16T07:20:21;14.88;95.58
71254;HTU21D;59019;47.638;18.966;2023-05-16T07:22:47;14.81;95.92
71254;HTU21D;59019;47.638;18.966;2023-05-16T07:25:13;14.75;96.26
71254;HTU21D;59019;47.638;18.966;2023-05-16T07:27:41;14.77;96.40
71254;HTU21D;59019;47.638;18.966;2023-05-16T07:30:10;14.84;97.20
71254;HTU21D;59019;47.638;18.966;2023-05-16T07:32:35;15.01;97.38
71254;HTU21D;59019;47.638;18.966;2023-05-16T07:35:02;14.92;97.70
71254;HTU21D;59019;47.638;18.966;2023-05-16T07:37:28;15.08;97.78
71254;HTU21D;59019;47.638;18.966;2023-05-16T07:39:53;15.09;97.28
71254;HTU21D;59019;47.638;18.966;2023-05-16T07:42:19;15.08;97.44
71254;HTU21D;59019;47.638;18.966;2023-05-16T07:44:44;15.03;98.10
71254;HTU21D;59019;47.638;18.966;2023-05-16T07:47:10;15.02;98.03
71254;HTU21D;59019;47.638;18.966;2023-05-16T07:49:35;14.99;98.14
71254;HTU21D;59019;47.638;18.966;2023-05-16T07:52:01;14.79;97.84
71254;HTU21D;59019;47.638;18.966;2023-05-16T07:54:26;14.78;98.20
71254;HTU21D;59019;47.638;18.966;2023-05-16T07:56:52;14.73;98.30
71254;HTU21D;59019;47.638;18.966;2023-05-16T07:59:17;14.60;97.80
71254;HTU21D;59019;47.638;18.966;2023-05-16T08:01:43;14.57;97.81
71254;HTU21D;59019;47.638;18.966;2023-05-16T08:04:09;14.37;99.18
71254;HTU21D;59019;47.638;18.966;2023-05-16T08:06:34;14.38;99.92
71254;HTU21D;59019;47.638;18.966;2023-05-16T08:09:01;14.37;99.94
71254;HTU21D;59019;47.638;18.966;2023-05-16T08:11:26;14.35;100.22
71254;HTU21D;59019;47.638;18.966;2023-05-16T08:13:52;14.21;101.01
71254;HTU21D;59019;47.638;18.966;2023-05-16T08:16:18;14.19;101.69
71254;HTU21D;59019;47.638;18.966;2023-05-16T08:18:43;14.21;101.25
71254;HTU21D;59019;47.638;18.966;2023-05-16T08:21:09;14.17;102.18
71254;HTU21D;59019;47.638;18.966;2023-05-16T08:23:34;14.11;102.60
71254;HTU21D;59019;47.638;18.966;2023-05-16T08:26:01;13.68;105.17
71254;HTU21D;59019;47.638;18.966;2023-05-16T08:28:27;13.55;107.32
71254;HTU21D;59019;47.638;18.966;2023-05-16T08:30:53;13.68;106.78
71254;HTU21D;59019;47.638;18.966;2023-05-16T08:33:18;13.75;106.59
71254;HTU21D;59019;47.638;18.966;2023-05-16T08:35:45;13.83;105.33
71254;HTU21D;59019;47.638;18.966;2023-05-16T08:38:13;13.79;107.33
71254;HTU21D;59019;47.638;18.966;2023-05-16T08:40:38;13.66;109.81
71254;HTU21D;59019;47.638;18.966;2023-05-16T08:43:05;13.82;108.30
71254;HTU21D;59019;47.638;18.966;2023-05-16T08:45:31;13.89;107.43
71254;HTU21D;59019;47.638;18.966;2023-05-16T08:47:56;13.89;107.46
71254;HTU21D;59019;47.638;18.966;2023-05-16T08:50:25;13.93;107.41
71254;HTU21D;59019;47.638;18.966;2023-05-16T08:52:54;13.89;108.69
71254;HTU21D;59019;47.638;18.966;2023-05-16T08:55:20;13.88;108.73
71254;HTU21D;59019;47.638;18.966;2023-05-16T08:57:48;13.91;109.50
71254;HTU21D;59019;47.638;18.966;2023-05-16T09:00:16;13.93;109.04
71254;HTU21D;59019;47.638;18.966;2023-05-16T09:02:44;13.95;108.99
71254;HTU21D;59019;47.638;18.966;2023-05-16T09:05:14;14.00;109.90
71254;HTU21D;59019;47.638;18.966;2023-05-16T09:07:41;13.84;111.17
71254;HTU21D;59019;47.638;18.966;2023-05-16T09:10:07;13.98;109.75
71254;HTU21D;59019;47.638;18.966;2023-05-16T09:12:33;14.08;108.33
71254;HTU21D;59019;47.638;18.966;2023-05-16T09:15:04;14.14;107.54
71254;HTU21D;59019;47.638;18.966;2023-05-16T09:17:50;14.21;107.61
71254;HTU21D;59019;47.638;18.966;2023-05-16T09:20:18;14.24;107.38
71254;HTU21D;59019;47.638;18.966;2023-05-16T09:22:54;14.23;108.49
71254;HTU21D;59019;47.638;18.966;2023-05-16T09:25:22;14.29;107.84
71254;HTU21D;59019;47.638;18.966;2023-05-16T09:28:09;14.21;108.43
71254;HTU21D;59019;47.638;18.966;2023-05-16T09:30:35;14.26;109.04
71254;HTU21D;59019;47.638;18.966;2023-05-16T09:33:01;14.32;107.43
71254;HTU21D;59019;47.638;18.966;2023-05-16T09:35:27;14.42;107.16
71254;HTU21D;59019;47.638;18.966;2023-05-16T09:37:52;14.50;106.37
71254;HTU21D;59019;47.638;18.966;2023-05-16T09:40:22;14.40;106.15
71254;HTU21D;59019;47.638;18.966;2023-05-16T09:43:04;14.36;106.14
71254;HTU21D;59019;47.638;18.966;2023-05-16T09:45:31;14.36;105.97
71254;HTU21D;59019;47.638;18.966;2023-05-16T09:48:04;14.37;105.78
71254;HTU21D;59019;47.638;18.966;2023-05-16T09:50:35;14.33;107.04
71254;HTU21D;59019;47.638;18.966;2023-05-16T09:53:02;14.25;108.81
71254;HTU21D;59019;47.638;18.966;2023-05-16T09:55:28;14.38;107.37
71254;HTU21D;59019;47.638;18.966;2023-05-16T09:57:55;14.43;106.11
71254;HTU21D;59019;47.638;18.966;2023-05-16T10:00:20;14.37;107.56
71254;HTU21D;59019;47.638;18.966;2023-05-16T10:02:46;14.30;109.68
71254;HTU21D;59019;47.638;18.966;2023-05-16T10:05:12;14.49;108.55
71254;HTU21D;59019;47.638;18.966;2023-05-16T10:07:38;14.57;107.03
71254;HTU21D;59019;47.638;18.966;2023-05-16T10:10:05;14.44;107.72
71254;HTU21D;59019;47.638;18.966;2023-05-16T10:12:33;14.42;109.17
71254;HTU21D;59019;47.638;18.966;2023-05-16T10:15:03;14.49;107.16
71254;HTU21D;59019;47.638;18.966;2023-05-16T10:17:33;14.41;108.75
71254;HTU21D;59019;47.638;18.966;2023-05-16T10:20:05;14.17;114.03
71254;HTU21D;59019;47.638;18.966;2023-05-16T10:22:33;14.11;116.83
71254;HTU21D;59019;47.638;18.966;2023-05-16T10:25:27;14.24;114.76
71254;HTU21D;59019;47.638;18.966;2023-05-16T10:27:53;14.34;113.53
71254;HTU21D;59019;47.638;18.966;2023-05-16T10:30:19;14.38;113.32
71254;HTU21D;59019;47.638;18.966;2023-05-16T10:32:46;14.44;110.27
71254;HTU21D;59019;47.638;18.966;2023-05-16T10:35:13;14.28;112.21
71254;HTU21D;59019;47.638;18.966;2023-05-16T10:37:39;14.29;112.68
71254;HTU21D;59019;47.638;18.966;2023-05-16T10:40:06;14.30;112.84
71254;HTU21D;59019;47.638;18.966;2023-05-16T10:42:33;14.27;113.45
71254;HTU21D;59019;47.638;18.966;2023-05-16T10:45:14;14.35;111.86
71254;HTU21D;59019;47.638;18.966;2023-05-16T10:47:53;14.40;111.01
71254;HTU21D;59019;47.638;18.966;2023-05-16T10:50:32;14.42;111.68
71254;HTU21D;59019;47.638;18.966;2023-05-16T10:53:32;14.47;111.55
71254;HTU21D;59019;47.638;18.966;2023-05-16T10:58:41;14.52;112.04
71254;HTU21D;59019;47.638;18.966;2023-05-16T11:01:18;14.60;111.78
71254;HTU21D;59019;47.638;18.966;2023-05-16T11:06:43;14.82;110.58
71254;HTU21D;59019;47.638;18.966;2023-05-16T11:11:59;15.00;107.00
71254;HTU21D;59019;47.638;18.966;2023-05-16T11:17:08;14.56;114.68
71254;HTU21D;59019;47.638;18.966;2023-05-16T11:22:11;14.67;113.02
71254;HTU21D;59019;47.638;18.966;2023-05-16T11:27:26;14.87;111.67
71254;HTU21D;59019;47.638;18.966;2023-05-16T11:30:17;15.04;109.55
71254;HTU21D;59019;47.638;18.966;2023-05-16T11:32:46;15.17;108.46
71254;HTU21D;59019;47.638;18.966;2023-05-16T11:35:14;15.31;107.65
71254;HTU21D;59019;47.638;18.966;2023-05-16T11:37:40;15.39;108.84
71254;HTU21D;59019;47.638;18.966;2023-05-16T11:40:08;15.49;108.40
71254;HTU21D;59019;47.638;18.966;2023-05-16T11:42:46;15.58;107.30
71254;HTU21D;59019;47.638;18.966;2023-05-16T11:45:19;15.55;106.24
71254;HTU21D;59019;47.638;18.966;2023-05-16T11:47:49;15.45;107.22
71254;HTU21D;59019;47.638;18.966;2023-05-16T11:50:17;15.45;107.30
71254;HTU21D;59019;47.638;18.966;2023-05-16T11:52:45;15.61;106.66
71254;HTU21D;59019;47.638;18.966;2023-05-16T11:55:11;15.68;105.40
71254;HTU21D;59019;47.638;18.966;2023-05-16T11:57:40;15.69;105.73
71254;HTU21D;59019;47.638;18.966;2023-05-16T12:00:18;15.71;105.09
71254;HTU21D;59019;47.638;18.966;2023-05-16T12:02:48;15.52;107.08
71254;HTU21D;59019;47.638;18.966;2023-05-16T12:05:17;15.72;106.54
71254;HTU21D;59019;47.638;18.966;2023-05-16T12:07:45;15.73;104.76
71254;HTU21D;59019;47.638;18.966;2023-05-16T12:10:13;15.68;105.47
71254;HTU21D;59019;47.638;18.966;2023-05-16T12:12:41;15.67;105.89
71254;HTU21D;59019;47.638;18.966;2023-05-16T12:15:08;15.37;109.44
71254;HTU21D;59019;47.638;18.966;2023-05-16T12:17:39;15.48;110.84
71254;HTU21D;59019;47.638;18.966;2023-05-16T12:20:06;15.58;107.22
71254;HTU21D;59019;47.638;18.966;2023-05-16T12:22:41;15.54;108.19
71254;HTU21D;59019;47.638;18.966;2023-05-16T12:27:54;15.61;107.47
71254;HTU21D;59019;47.638;18.966;2023-05-16T12:30:22;15.70;107.08
71254;HTU21D;59019;47.638;18.966;2023-05-16T12:32:58;15.73;106.72
71254;HTU21D;59019;47.638;18.966;2023-05-16T12:35:25;15.80;106.67
71254;HTU21D;59019;47.638;18.966;2023-05-16T12:37:54;15.84;106.07
71254;HTU21D;59019;47.638;18.966;2023-05-16T12:40:20;15.84;106.49
71254;HTU21D;59019;47.638;18.966;2023-05-16T12:42:50;15.80;107.72
71254;HTU21D;59019;47.638;18.966;2023-05-16T12:45:16;15.77;108.05
71254;HTU21D;59019;47.638;18.966;2023-05-16T12:47:42;15.86;106.47
71254;HTU21D;59019;47.638;18.966;2023-05-16T12:50:12;15.83;105.95
71254;HTU21D;59019;47.638;18.966;2023-05-16T12:52:51;15.78;107.30
71254;HTU21D;59019;47.638;18.966;2023-05-16T12:55:18;15.75;109.04
71254;HTU21D;59019;47.638;18.966;2023-05-16T12:57:45;15.84;107.59
71254;HTU21D;59019;47.638;18.966;2023-05-16T13:00:13;15.98;105.73
71254;HTU21D;59019;47.638;18.966;2023-05-16T13:02:39;16.07;104.78
71254;HTU21D;59019;47.638;18.966;2023-05-16T13:05:05;15.95;105.89
71254;HTU21D;59019;47.638;18.966;2023-05-16T13:07:35;15.87;106.28
71254;HTU21D;59019;47.638;18.966;2023-05-16T13:10:01;15.87;106.81
71254;HTU21D;59019;47.638;18.966;2023-05-16T13:12:26;15.76;107.52
71254;HTU21D;59019;47.638;18.966;2023-05-16T13:14:52;15.85;106.75
71254;HTU21D;59019;47.638;18.966;2023-05-16T13:17:18;15.83;107.72
71254;HTU21D;59019;47.638;18.966;2023-05-16T13:19:44;15.96;106.87
71254;HTU21D;59019;47.638;18.966;2023-05-16T13:22:09;15.76;110.25
71254;HTU21D;59019;47.638;18.966;2023-05-16T13:24:35;15.98;108.54
71254;HTU21D;59019;47.638;18.966;2023-05-16T13:27:01;16.14;107.68
71254;HTU21D;59019;47.638;18.966;2023-05-16T13:29:26;16.25;105.35
71254;HTU21D;59019;47.638;18.966;2023-05-16T13:31:52;16.32;105.21
71254;HTU21D;59019;47.638;18.966;2023-05-16T13:34:17;16.39;103.83
71254;HTU21D;59019;47.638;18.966;2023-05-16T13:36:43;16.28;104.32
71254;HTU21D;59019;47.638;18.966;2023-05-16T13:39:10;16.28;103.98
71254;HTU21D;59019;47.638;18.966;2023-05-16T13:41:37;16.18;104.44
71254;HTU21D;59019;47.638;18.966;2023-05-16T13:44:04;16.18;104.86
71254;HTU21D;59019;47.638;18.966;2023-05-16T13:46:30;16.14;105.50
71254;HTU21D;59019;47.638;18.966;2023-05-16T13:48:55;15.84;109.78
71254;HTU21D;59019;47.638;18.966;2023-05-16T13:51:21;15.95;108.70
71254;HTU21D;59019;47.638;18.966;2023-05-16T13:53:46;16.00;108.56
71254;HTU21D;59019;47.638;18.966;2023-05-16T13:56:12;16.01;108.30
71254;HTU21D;59019;47.638;18.966;2023-05-16T13:58:37;15.97;109.67
71254;HTU21D;59019;47.638;18.966;2023-05-16T14:01:03;16.02;109.71
71254;HTU21D;59019;47.638;18.966;2023-05-16T14:03:28;16.04;109.55
71254;HTU21D;59019;47.638;18.966;2023-05-16T14:05:54;16.06;109.82
71254;HTU21D;59019;47.638;18.966;2023-05-16T14:08:20;16.08;109.13
71254;HTU21D;59019;47.638;18.966;2023-05-16T14:10:45;16.19;107.91
71254;HTU21D;59019;47.638;18.966;2023-05-16T14:13:11;16.17;107.24
71254;HTU21D;59019;47.638;18.966;2023-05-16T14:15:36;15.92;111.34
71254;HTU21D;59019;47.638;18.966;2023-05-16T14:18:03;15.88;114.11
71254;HTU21D;59019;47.638;18.966;2023-05-16T14:20:29;16.04;112.12
71254;HTU21D;59019;47.638;18.966;2023-05-16T14:22:55;16.12;109.20
71254;HTU21D;59019;47.638;18.966;2023-05-16T14:25:21;16.02;111.71
71254;HTU21D;59019;47.638;18.966;2023-05-16T14:27:46;16.04;111.10
71254;HTU21D;59019;47.638;18.966;2023-05-16T14:30:12;16.14;109.90
71254;HTU21D;59019;47.638;18.966;2023-05-16T14:32:38;16.29;109.21
71254;HTU21D;59019;47.638;18.966;2023-05-16T14:35:04;16.43;106.95
71254;HTU21D;59019;47.638;18.966;2023-05-16T14:37:31;16.50;106.59
71254;HTU21D;59019;47.638;18.966;2023-05-16T14:39:56;16.50;106.46
71254;HTU21D;59019;47.638;18.966;2023-05-16T14:42:23;16.59;105.60
71254;HTU21D;59019;47.638;18.966;2023-05-16T14:44:49;16.48;106.28
71254;HTU21D;59019;47.638;18.966;2023-05-16T14:47:15;16.52;106.14
71254;HTU21D;59019;47.638;18.966;2023-05-16T14:49:41;16.34;106.74
71254;HTU21D;59019;47.638;18.966;2023-05-16T14:52:07;16.34;106.98
71254;HTU21D;59019;47.638;18.966;2023-05-16T14:54:32;16.32;107.12
71254;HTU21D;59019;47.638;18.966;2023-05-16T14:56:58;16.33;106.82
71254;HTU21D;59019;47.638;18.966;2023-05-16T14:59:25;16.34;106.73
71254;HTU21D;59019;47.638;18.966;2023-05-16T15:01:50;16.31;107.97
71254;HTU21D;59019;47.638;18.966;2023-05-16T15:04:16;16.27;108.36
71254;HTU21D;59019;47.638;18.966;2023-05-16T15:06:41;16.19;110.54
71254;HTU21D;59019;47.638;18.966;2023-05-16T15:09:07;16.19;110.71
71254;HTU21D;59019;47.638;18.966;2023-05-16T15:11:33;16.21;110.99
71254;HTU21D;59019;47.638;18.966;2023-05-16T15:13:59;16.31;110.61
71254;HTU21D;59019;47.638;18.966;2023-05-16T15:16:26;16.29;110.30
71254;HTU21D;59019;47.638;18.966;2023-05-16T15:18:51;16.29;110.46
71254;HTU21D;59019;47.638;18.966;2023-05-16T15:21:17;16.36;109.65
71254;HTU21D;59019;47.638;18.966;2023-05-16T15:23:43;16.13;112.12